Startpagina
METAR-TAF:

METAR-TAF

Vliegvelden :

Fritzlar, Duitsland

breedte: 51-07N, lengte: 009-17E, hoogte: 172 m

Actueel weer

Dit bericht is 48 minuten geleden gemaakt, om 03:20 UTC
Wind 3 kt uit het noordwesten
Temperatuur 9°C
Vochtigheid 81%
Druk 1020 hPa
Zicht 10 km of meer
Weinig wolken op 34000 ft
mist in de omgeving

METAR: ETHF 020320Z 32003KT 9999 VCFG FEW340 09/06 Q1020 BLU+

Tijdstip: 06:08 (04:08 UTC)


TAF: ontbreekt

Waarnemingen en weersverwachtingen van meer dan 4000 vliegvelden (METAR en TAF).

De beschikbare stations zijn de gele en rode punten op de kaart.

Ga met uw muis naar het station om de naam te zien.

Klik dan om waarnemingen en weersverwachtingen te zien.

kaart wijzigen: klik op de groene knoppen met een zwart kruis om in te zoomen, op de groene knop met een streepje om uit te zoomen of op de groene pijlen voor aangrenzende kaarten.


METAR-TAF: